首页
METAR-TAF:

METAR-TAF

机场 :

莫伊国际机场

蒙巴萨, 肯尼亚

纬度: 04-02S, 经度: 039-37E, 海拔: 57米

当前天气观测

该预报发布于1小时和20分钟前的10:00 UTC
风速16节,风向
温度 31°C
湿度 63%
气压 1010 hPa
能见度10公里或以上
多云层高于2600英尺

METAR: HKMO 111000Z 36016KT 9999 BKN026 31/23 Q1010 NOSIG

时间: 14:20 (11:20 UTC)

预报

该预报发布于6小时和20分钟前的05:00 UTC
预报有效从11日的 06点(UTC)到 12日的 12点(UTC)
风速5节,风向
能见度10公里或以上
少量云层高于2200英尺
成为
从 11日的 09点(UTC)到 11日的 12点(UTC)
风速10节,风向东北
散云层高于2600英尺
成为
从 11日的 18点(UTC)到 11日的 21点(UTC)
风速5节,风向东北
少量云层高于2200英尺
短暂存在
从 12日的 00点(UTC)到 12日的 06点(UTC)
风速5节,风向西转西南
散云层高于2000英尺
多云层高于8000英尺
小阵雨
成为
从 12日的 09点(UTC)到 12日的 12点(UTC)
风速10节,风向东北
散云层高于2600英尺

TAF: HKMO 110500Z 1106/1212 01005KT 9999 FEW022 BECMG 1109/1112 05010KT SCT026 BECMG 1118/1121 05005KT FEW022 TEMPO 1200/1206 24005KT -SHRA SCT020 BKN080 BECMG 1209/1212 05010KT SCT026

超过4000个机场的气象观测和天气预报(METAR&TAF报告)。

可查询的气象台以黄色和红色小点在地图上表示。

将鼠标移到小点上方,可查看气象台名称。

然后点击查看天气观测和预报。

如需切换地图:点击带黑十字的绿色按钮放大地图;点击带横线的绿色按钮缩小地图;或者点击绿色箭头查看邻近地区的地图。


METAR-TAF: